createdAt,value
2018-01-12T00:00:09.071Z,2.8
2018-01-12T00:01:13.198Z,2.8
2018-01-12T00:02:16.615Z,2.9
2018-01-12T00:03:20.678Z,2.9
2018-01-12T00:04:25.830Z,2.9
2018-01-12T00:05:30.718Z,2.9
2018-01-12T00:06:34.087Z,2.9
2018-01-12T00:07:37.962Z,2.9
2018-01-12T00:09:19.558Z,2.8
2018-01-12T00:10:23.013Z,2.7
2018-01-12T00:11:28.999Z,2.7
2018-01-12T00:12:33.700Z,2.7
2018-01-12T00:13:40.704Z,2.7
2018-01-12T00:14:46.947Z,2.8
2018-01-12T00:15:51.678Z,2.8
2018-01-12T00:16:57.034Z,2.8
2018-01-12T00:18:02.302Z,2.8
2018-01-12T00:19:07.136Z,2.8
2018-01-12T00:20:18.595Z,2.7
2018-01-12T00:21:23.013Z,2.7
2018-01-12T00:22:30.009Z,2.8
2018-01-12T00:23:36.241Z,2.8
2018-01-12T00:24:42.453Z,2.8
2018-01-12T00:25:48.710Z,2.7
2018-01-12T00:26:54.830Z,2.7
2018-01-12T00:28:00.915Z,2.7
2018-01-12T00:29:07.638Z,3
2018-01-12T00:30:14.021Z,2.8
2018-01-12T00:31:27.171Z,2.6
2018-01-12T00:32:33.645Z,2.6
2018-01-12T00:33:39.104Z,2.6
2018-01-12T00:34:45.569Z,2.7
2018-01-12T00:35:51.396Z,2.7
2018-01-12T00:36:56.705Z,2.7
2018-01-12T00:38:02.922Z,2.9
2018-01-12T00:39:09.199Z,2.7
2018-01-12T00:40:15.245Z,2.7
2018-01-12T00:41:21.368Z,2.7
2018-01-12T00:42:37.363Z,2.7
2018-01-12T00:43:43.893Z,2.7
2018-01-12T00:44:50.572Z,2.6
2018-01-12T00:45:58.088Z,2.6
2018-01-12T00:47:03.950Z,2.6
2018-01-12T00:48:12.881Z,2.6
2018-01-12T00:49:18.242Z,2.6
2018-01-12T00:50:29.025Z,2.5
2018-01-12T00:51:34.799Z,2.5
2018-01-12T00:52:44.204Z,2.4
2018-01-12T00:53:54.009Z,2.3
2018-01-12T00:55:02.956Z,2.3
2018-01-12T00:56:11.229Z,2.3
2018-01-12T00:57:20.571Z,2.4
2018-01-12T00:58:26.536Z,2.5
2018-01-12T00:59:31.209Z,2.4
2018-01-12T01:00:39.840Z,2.5
2018-01-12T01:01:48.394Z,2.3
2018-01-12T01:02:55.240Z,2.2
2018-01-12T01:04:02.807Z,2.2
2018-01-12T01:05:13.149Z,2.2
2018-01-12T01:06:19.543Z,2.2
2018-01-12T01:07:27.841Z,2.2
2018-01-12T01:08:36.095Z,2.3
2018-01-12T01:09:39.497Z,2.4
2018-01-12T01:10:45.138Z,2.4
2018-01-12T01:11:52.855Z,2.3
2018-01-12T01:12:59.684Z,2.2
2018-01-12T01:14:06.347Z,2.3
2018-01-12T01:15:11.554Z,2.3
2018-01-12T01:16:25.855Z,2.3
2018-01-12T01:17:32.057Z,2.4
2018-01-12T01:18:38.341Z,2.3
2018-01-12T01:19:44.531Z,2.3
2018-01-12T01:20:51.509Z,2.4
2018-01-12T01:21:59.482Z,2.4
2018-01-12T01:23:06.441Z,2.5
2018-01-12T01:24:12.153Z,2.4
2018-01-12T01:25:20.271Z,2.3
2018-01-12T01:26:28.265Z,2.2
2018-01-12T01:27:38.764Z,2.2
2018-01-12T01:28:46.173Z,2.3
2018-01-12T01:29:53.190Z,2.4
2018-01-12T01:31:02.306Z,2.3
2018-01-12T01:32:08.547Z,2.3
2018-01-12T01:33:15.461Z,2.3
2018-01-12T01:34:24.875Z,2.3
2018-01-12T01:35:31.003Z,2.3
2018-01-12T01:36:36.749Z,2.3
2018-01-12T01:37:42.770Z,2.3
2018-01-12T01:38:57.790Z,2.2
2018-01-12T01:40:04.996Z,2.1
2018-01-12T01:41:11.156Z,2.2
2018-01-12T01:42:18.141Z,2.2
2018-01-12T01:43:24.738Z,2.3
2018-01-12T01:44:29.219Z,2.3
2018-01-12T01:45:32.505Z,2.4
2018-01-12T01:46:39.243Z,2.5
2018-01-12T01:47:43.077Z,2.5
2018-01-12T01:48:51.313Z,2.3
2018-01-12T01:50:06.417Z,2.4
2018-01-12T01:51:12.542Z,2.3
2018-01-12T01:52:18.566Z,2.3
2018-01-12T01:53:25.550Z,2.2
2018-01-12T01:54:33.990Z,2.3
2018-01-12T01:55:40.525Z,2.3
2018-01-12T01:56:46.460Z,2.3
2018-01-12T01:57:51.100Z,2.4
2018-01-12T01:58:54.217Z,2.4
2018-01-12T02:00:01.460Z,2.3
2018-01-12T02:02:19.792Z,2.3
2018-01-12T02:03:28.453Z,2.3
2018-01-12T02:04:36.064Z,2.3
2018-01-12T02:05:43.361Z,2.4
2018-01-12T02:06:49.631Z,2.5
2018-01-12T02:07:54.507Z,2.5
2018-01-12T02:09:01.971Z,2.6
2018-01-12T02:10:07.872Z,2.6
2018-01-12T02:11:12.973Z,2.6
2018-01-12T02:12:21.954Z,2.6
2018-01-12T02:13:35.982Z,2.6
2018-01-12T02:14:42.627Z,2.6
2018-01-12T02:15:46.869Z,2.6
2018-01-12T02:16:51.000Z,2.6
2018-01-12T02:17:54.282Z,2.6
2018-01-12T02:18:57.748Z,2.6
2018-01-12T02:20:03.144Z,2.6
2018-01-12T02:21:09.978Z,2.6
2018-01-12T02:22:15.041Z,2.8
2018-01-12T02:23:19.026Z,2.6
2018-01-12T02:24:26.078Z,2.6
2018-01-12T02:25:30.241Z,2.7
2018-01-12T02:26:33.626Z,2.6
2018-01-12T02:27:37.062Z,2.7
2018-01-12T02:28:40.474Z,2.6
2018-01-12T02:29:43.834Z,2.6
2018-01-12T02:30:47.326Z,2.6
2018-01-12T02:31:50.908Z,2.5
2018-01-12T02:32:55.192Z,2.5
2018-01-12T02:33:59.106Z,2.5
2018-01-12T02:35:06.115Z,2.5
2018-01-12T02:36:10.255Z,2.5
2018-01-12T02:37:14.412Z,2.5
2018-01-12T02:38:18.675Z,2.5
2018-01-12T02:39:22.283Z,2.6
2018-01-12T02:40:27.286Z,2.6
2018-01-12T02:41:31.323Z,2.5
2018-01-12T02:42:35.343Z,2.5
2018-01-12T02:43:38.878Z,2.5
2018-01-12T02:44:42.439Z,2.5
2018-01-12T02:45:50.321Z,2.5
2018-01-12T02:46:55.979Z,2.5
2018-01-12T02:48:00.101Z,2.4
2018-01-12T02:49:05.564Z,2.5
2018-01-12T02:50:11.686Z,2.5
2018-01-12T02:51:17.821Z,2.5
2018-01-12T02:52:23.202Z,2.5
2018-01-12T02:53:28.209Z,2.5
2018-01-12T02:54:33.654Z,2.5
2018-01-12T02:55:38.823Z,2.5
2018-01-12T02:57:19.664Z,2.5
2018-01-12T02:58:24.520Z,2.3
2018-01-12T02:59:29.255Z,2.3
2018-01-12T03:00:33.954Z,2.4
2018-01-12T03:01:41.888Z,2.5
2018-01-12T03:02:46.512Z,2.5
2018-01-12T03:03:51.729Z,2.3
2018-01-12T03:04:58.680Z,2.3
2018-01-12T03:06:06.184Z,2.4
2018-01-12T03:07:11.357Z,2.2
2018-01-12T03:08:22.724Z,2.2
2018-01-12T03:09:28.522Z,2.3
2018-01-12T03:10:34.667Z,2.3
2018-01-12T03:11:43.974Z,2.3
2018-01-12T03:12:50.648Z,2.2
2018-01-12T03:13:58.378Z,2.2
2018-01-12T03:15:02.928Z,2.3
2018-01-12T03:16:09.687Z,2.3
2018-01-12T03:17:16.031Z,2.2
2018-01-12T03:18:24.450Z,2.2
2018-01-12T03:19:35.441Z,2.3
2018-01-12T03:20:42.236Z,2.3
2018-01-12T03:21:47.416Z,2.4
2018-01-12T03:22:56.163Z,2.4
2018-01-12T03:24:02.190Z,2.4
2018-01-12T03:25:11.419Z,2.4
2018-01-12T03:26:16.619Z,2.4
2018-01-12T03:27:23.097Z,2.4
2018-01-12T03:28:27.896Z,2.5
2018-01-12T03:29:34.174Z,2.5
2018-01-12T03:30:50.030Z,2.3
2018-01-12T03:31:55.463Z,2.2
2018-01-12T03:33:03.953Z,2.2
2018-01-12T03:34:11.694Z,2.2
2018-01-12T03:35:16.272Z,2.1
2018-01-12T03:36:21.434Z,2.1
2018-01-12T03:37:29.956Z,2.1
2018-01-12T03:38:38.144Z,2.1
2018-01-12T03:39:46.827Z,2.2
2018-01-12T03:40:53.918Z,2.2
2018-01-12T03:42:05.418Z,2.1
2018-01-12T03:43:10.083Z,2.2
2018-01-12T03:44:15.467Z,2.2
2018-01-12T03:45:23.642Z,2.2
2018-01-12T03:46:32.041Z,2.3
2018-01-12T03:47:41.059Z,2.3
2018-01-12T03:48:50.216Z,2.3
2018-01-12T03:49:56.870Z,2.3
2018-01-12T03:51:03.088Z,2.3
2018-01-12T03:52:11.060Z,2.1
2018-01-12T03:53:23.698Z,2.1
2018-01-12T03:54:29.951Z,2.2
2018-01-12T03:55:34.522Z,2.2
2018-01-12T03:56:42.991Z,2.3
2018-01-12T03:57:49.010Z,2.2
2018-01-12T03:58:57.136Z,2.2
2018-01-12T04:00:03.588Z,2.3
2018-01-12T04:01:09.051Z,2.3
2018-01-12T04:02:16.525Z,2.3
2018-01-12T04:03:24.168Z,2
2018-01-12T04:04:38.767Z,2.2
2018-01-12T04:05:44.661Z,2.3
2018-01-12T04:06:54.313Z,2.2
2018-01-12T04:08:04.494Z,2.3
2018-01-12T04:09:10.429Z,2.3
2018-01-12T04:10:14.768Z,2.3
2018-01-12T04:11:22.261Z,2.4
2018-01-12T04:12:27.426Z,2.3
2018-01-12T04:13:34.838Z,2.3
2018-01-12T04:14:38.688Z,2.3
2018-01-12T04:15:46.077Z,2.3
2018-01-12T04:16:51.316Z,2.4
2018-01-12T04:17:57.238Z,2.4
2018-01-12T04:19:03.721Z,2.4
2018-01-12T04:20:10.307Z,2.5
2018-01-12T04:21:16.771Z,2.4
2018-01-12T04:22:31.253Z,2.3
2018-01-12T04:23:36.511Z,2.4
2018-01-12T04:24:43.643Z,2.5
2018-01-12T04:25:50.861Z,2.4
2018-01-12T04:27:02.753Z,2.4
2018-01-12T04:28:07.047Z,2.4
2018-01-12T04:29:14.432Z,2.4
2018-01-12T04:30:21.965Z,2.5
2018-01-12T04:31:28.005Z,2.4
2018-01-12T04:32:33.588Z,2.4
2018-01-12T04:33:39.794Z,2.4
2018-01-12T04:34:46.643Z,2.4
2018-01-12T04:35:52.005Z,2.4
2018-01-12T04:36:57.608Z,2.4
2018-01-12T04:38:12.060Z,2.4
2018-01-12T04:39:17.597Z,2.4
2018-01-12T04:40:24.353Z,2.5
2018-01-12T04:41:32.471Z,2.4
2018-01-12T04:42:40.649Z,2.4
2018-01-12T04:43:48.389Z,2.4
2018-01-12T04:44:54.414Z,2.4
2018-01-12T04:45:59.250Z,2.4
2018-01-12T04:47:04.318Z,2.4
2018-01-12T04:48:12.391Z,2.4
2018-01-12T04:49:54.691Z,2.4
2018-01-12T04:50:59.639Z,2.4
2018-01-12T04:52:03.754Z,2.4
2018-01-12T04:53:07.345Z,2.4
2018-01-12T04:54:10.725Z,2.5
2018-01-12T04:55:15.774Z,2.5
2018-01-12T04:56:19.182Z,2.5
2018-01-12T04:57:22.669Z,2.5
2018-01-12T04:58:26.240Z,2.5
2018-01-12T04:59:29.719Z,2.5
2018-01-12T05:00:37.616Z,2.5
2018-01-12T05:01:41.155Z,2.5
2018-01-12T05:02:45.232Z,2.4
2018-01-12T05:03:48.803Z,2.4
2018-01-12T05:04:52.197Z,2.3
2018-01-12T05:05:57.833Z,2.3
2018-01-12T05:07:01.420Z,2.5
2018-01-12T05:08:04.798Z,2.3
2018-01-12T05:09:08.402Z,2.3
2018-01-12T05:10:13.825Z,2.3
2018-01-12T05:11:21.739Z,2.5
2018-01-12T05:12:25.798Z,2.3
2018-01-12T05:13:29.129Z,2.4
2018-01-12T05:14:32.708Z,2.3
2018-01-12T05:15:37.018Z,2.3
2018-01-12T05:16:41.356Z,2.3
2018-01-12T05:17:44.971Z,2.3
2018-01-12T05:18:49.158Z,2.3
2018-01-12T05:19:54.126Z,2.3
2018-01-12T05:20:57.871Z,2.3
2018-01-12T05:22:05.723Z,2.4
2018-01-12T05:23:10.122Z,2.4
2018-01-12T05:24:14.779Z,2.3
2018-01-12T05:25:18.185Z,2.2
2018-01-12T05:26:22.877Z,2.2
2018-01-12T05:27:27.687Z,2.3
2018-01-12T05:28:31.115Z,2.3
2018-01-12T05:29:34.618Z,2.2
2018-01-12T05:30:37.909Z,2.3
2018-01-12T05:31:42.646Z,2.3
2018-01-12T05:33:24.802Z,2.2
2018-01-12T05:34:28.701Z,2.2
2018-01-12T05:35:34.769Z,2.2
2018-01-12T05:36:42.420Z,2.2
2018-01-12T05:37:47.154Z,2.1
2018-01-12T05:38:55.191Z,2.2
2018-01-12T05:40:01.137Z,2.1
2018-01-12T05:41:06.860Z,2.2
2018-01-12T05:42:14.483Z,2.1
2018-01-12T05:43:19.640Z,2.1
2018-01-12T05:45:03.088Z,2
2018-01-12T05:46:09.094Z,1.9
2018-01-12T05:47:12.487Z,1.9
2018-01-12T05:48:20.451Z,2
2018-01-12T05:49:27.614Z,2.1
2018-01-12T05:50:33.653Z,2.1
2018-01-12T05:51:39.110Z,2.1
2018-01-12T05:52:46.116Z,2.2
2018-01-12T05:53:52.896Z,2.2
2018-01-12T05:54:57.520Z,2.1
2018-01-12T05:56:08.614Z,2.2
2018-01-12T05:57:13.231Z,2.2
2018-01-12T05:58:19.989Z,2.2
2018-01-12T05:59:27.964Z,2.1
2018-01-12T06:00:34.113Z,2.1
2018-01-12T06:01:40.040Z,2.1
2018-01-12T06:02:45.908Z,2.1
2018-01-12T06:03:51.792Z,2.1
2018-01-12T06:04:55.333Z,2.1
2018-01-12T06:06:00.332Z,2.1
2018-01-12T06:07:15.746Z,1.9
2018-01-12T06:08:20.319Z,1.8
2018-01-12T06:09:26.514Z,1.9
2018-01-12T06:10:32.762Z,1.9
2018-01-12T06:11:37.769Z,2
2018-01-12T06:12:42.658Z,2.1
2018-01-12T06:13:48.719Z,2.1
2018-01-12T06:14:56.369Z,1.8
2018-01-12T06:16:01.594Z,2
2018-01-12T06:17:07.707Z,2.1
2018-01-12T06:18:18.566Z,2
2018-01-12T06:19:23.192Z,2
2018-01-12T06:20:29.226Z,1.8
2018-01-12T06:21:35.414Z,1.6
2018-01-12T06:22:44.599Z,1.9
2018-01-12T06:23:54.556Z,2
2018-01-12T06:25:01.259Z,2
2018-01-12T06:26:08.376Z,2.1
2018-01-12T06:27:15.368Z,2.1
2018-01-12T06:28:21.667Z,2.1
2018-01-12T06:30:42.992Z,2.1
2018-01-12T06:31:51.581Z,2.1
2018-01-12T06:32:57.338Z,2.2
2018-01-12T06:34:06.650Z,2.2
2018-01-12T06:35:12.332Z,2.1
2018-01-12T06:36:22.325Z,2
2018-01-12T06:37:29.393Z,2
2018-01-12T06:38:36.655Z,2.1
2018-01-12T06:39:45.572Z,2.1
2018-01-12T06:40:49.983Z,2.1
2018-01-12T06:42:02.679Z,2
2018-01-12T06:43:08.273Z,2.1
2018-01-12T06:44:13.511Z,2.1
2018-01-12T06:45:17.456Z,2.1
2018-01-12T06:46:22.309Z,2.2
2018-01-12T06:47:30.057Z,2.2
2018-01-12T06:48:39.687Z,2.1
2018-01-12T06:49:45.904Z,2.1
2018-01-12T06:50:52.613Z,2.1
2018-01-12T06:51:57.348Z,2.2
2018-01-12T06:53:10.921Z,2.1
2018-01-12T06:54:18.252Z,2.2
2018-01-12T06:55:26.354Z,2.1
2018-01-12T06:56:32.778Z,2.1
2018-01-12T06:57:41.735Z,2.1
2018-01-12T06:58:49.159Z,2.1
2018-01-12T06:59:54.684Z,2.1
2018-01-12T07:01:01.167Z,2.1
2018-01-12T07:02:07.728Z,2.1
2018-01-12T07:03:14.746Z,2.1
2018-01-12T07:04:26.091Z,2.1
2018-01-12T07:05:31.843Z,2.2
2018-01-12T07:06:35.289Z,2.2
2018-01-12T07:07:41.379Z,2.2
2018-01-12T07:08:45.312Z,2.2
2018-01-12T07:09:52.008Z,2.2
2018-01-12T07:10:55.475Z,2.2
2018-01-12T07:12:00.609Z,2.2
2018-01-12T07:13:06.256Z,2.1
2018-01-12T07:14:10.620Z,2
2018-01-12T07:15:53.843Z,2
2018-01-12T07:16:59.252Z,2.1
2018-01-12T07:18:04.129Z,2.2
2018-01-12T07:19:11.108Z,2.2
2018-01-12T07:20:17.598Z,2.2
2018-01-12T07:21:24.045Z,2.2
2018-01-12T07:22:32.106Z,2.2
2018-01-12T07:23:39.409Z,2.2
2018-01-12T07:24:45.445Z,2.2
2018-01-12T07:25:49.712Z,2.2
2018-01-12T07:26:57.694Z,2.2
2018-01-12T07:28:01.927Z,2.2
2018-01-12T07:29:05.411Z,2.2
2018-01-12T07:30:08.859Z,2.1
2018-01-12T07:31:12.216Z,2.2
2018-01-12T07:32:16.238Z,2.1
2018-01-12T07:33:20.674Z,2.1
2018-01-12T07:34:24.068Z,2.2
2018-01-12T07:35:27.550Z,2.3
2018-01-12T07:36:31.058Z,2.2
2018-01-12T07:37:37.979Z,2.2
2018-01-12T07:38:41.702Z,2.2
2018-01-12T07:39:45.204Z,2.2
2018-01-12T07:40:49.130Z,2.2
2018-01-12T07:41:53.355Z,2.1
2018-01-12T07:42:57.545Z,2.2
2018-01-12T07:44:01.803Z,2.2
2018-01-12T07:45:05.209Z,2.2
2018-01-12T07:46:09.945Z,2.2
2018-01-12T07:47:13.502Z,2.1
2018-01-12T07:48:21.441Z,2
2018-01-12T07:49:24.911Z,2
2018-01-12T07:50:29.508Z,2
2018-01-12T07:51:32.883Z,1.9
2018-01-12T07:52:37.928Z,2
2018-01-12T07:53:41.408Z,2
2018-01-12T07:54:44.919Z,2.1
2018-01-12T07:55:49.980Z,2.1
2018-01-12T07:56:54.629Z,2.1
2018-01-12T07:57:57.882Z,2.1
2018-01-12T07:59:06.254Z,2
2018-01-12T08:00:11.322Z,2.1
2018-01-12T08:01:16.276Z,1.9
2018-01-12T08:02:19.796Z,2
2018-01-12T08:03:24.055Z,1.9
2018-01-12T08:04:28.260Z,1.9
2018-01-12T08:05:33.487Z,1.9
2018-01-12T08:06:38.069Z,2
2018-01-12T08:07:42.309Z,2
2018-01-12T08:08:48.626Z,1.8
2018-01-12T08:09:57.475Z,1.8
2018-01-12T08:11:04.226Z,1.9
2018-01-12T08:12:09.214Z,1.9
2018-01-12T08:13:15.813Z,2
2018-01-12T08:14:22.151Z,2.1
2018-01-12T08:15:29.608Z,2.1
2018-01-12T08:16:34.735Z,2.2
2018-01-12T08:17:42.106Z,2.2
2018-01-12T08:18:46.648Z,2.2
2018-01-12T08:19:51.796Z,2.3
2018-01-12T08:21:00.689Z,2.2
2018-01-12T08:22:06.672Z,2.2
2018-01-12T08:23:11.377Z,2.2
2018-01-12T08:24:16.612Z,2.2
2018-01-12T08:25:22.008Z,2.2
2018-01-12T08:26:26.620Z,2.1
2018-01-12T08:27:32.247Z,2.2
2018-01-12T08:28:39.161Z,2.1
2018-01-12T08:29:42.728Z,2.2
2018-01-12T08:30:50.848Z,2.2
2018-01-12T08:32:04.121Z,2.3
2018-01-12T08:33:09.830Z,2.3
2018-01-12T08:34:16.476Z,2.2
2018-01-12T08:35:21.600Z,2.1
2018-01-12T08:36:26.363Z,2.2
2018-01-12T08:37:31.912Z,2.2
2018-01-12T08:38:36.668Z,2.2
2018-01-12T08:39:42.394Z,2.2
2018-01-12T08:40:48.107Z,2.2
2018-01-12T08:41:55.796Z,2.2
2018-01-12T08:43:08.715Z,2.2
2018-01-12T08:44:18.123Z,2.1
2018-01-12T08:45:24.801Z,2.2
2018-01-12T08:46:28.752Z,2.3
2018-01-12T08:47:34.089Z,2.3
2018-01-12T08:48:40.587Z,2.2
2018-01-12T08:49:47.743Z,2.2
2018-01-12T08:50:52.721Z,2.2
2018-01-12T08:52:00.838Z,2.2
2018-01-12T08:53:05.564Z,2.3
2018-01-12T08:54:12.964Z,2.2
2018-01-12T08:55:16.310Z,2.2
2018-01-12T08:56:19.835Z,2.2
2018-01-12T08:57:24.166Z,2.2
2018-01-12T08:58:31.951Z,2.2
2018-01-12T08:59:40.116Z,2.2
2018-01-12T09:00:44.109Z,2.2
2018-01-12T09:01:50.217Z,2.3
2018-01-12T09:02:59.159Z,2.3
2018-01-12T09:04:05.305Z,2.3
2018-01-12T09:05:21.756Z,2.2
2018-01-12T09:06:28.105Z,2.2
2018-01-12T09:07:36.009Z,2.2
2018-01-12T09:08:43.275Z,2.3
2018-01-12T09:09:48.370Z,2.3
2018-01-12T09:10:54.266Z,2.3
2018-01-12T09:11:58.629Z,2.3
2018-01-12T09:13:02.675Z,2.4
2018-01-12T09:14:09.304Z,2.4
2018-01-12T09:15:12.721Z,2.3
2018-01-12T09:16:34.028Z,2.4
2018-01-12T09:17:48.950Z,2.4
2018-01-12T09:18:55.264Z,2.4
2018-01-12T09:19:59.813Z,2.4
2018-01-12T09:21:05.184Z,2.3
2018-01-12T09:22:10.387Z,2.3
2018-01-12T09:23:17.010Z,2.3
2018-01-12T09:24:24.179Z,2.2
2018-01-12T09:25:27.695Z,2.3
2018-01-12T09:26:33.687Z,2.2
2018-01-12T09:27:44.103Z,2.3
2018-01-12T09:28:51.041Z,2.2
2018-01-12T09:29:57.794Z,2.2
2018-01-12T09:31:03.471Z,1.9
2018-01-12T09:32:08.205Z,2.1
2018-01-12T09:33:14.910Z,2.1
2018-01-12T09:34:19.172Z,2.2
2018-01-12T09:35:24.660Z,2.1
2018-01-12T09:36:29.282Z,2.1
2018-01-12T09:37:36.429Z,2.2
2018-01-12T09:38:46.741Z,2.2
2018-01-12T09:39:52.921Z,2.1
2018-01-12T09:40:58.390Z,2.1
2018-01-12T09:42:02.502Z,2.2
2018-01-12T09:43:06.702Z,2.2
2018-01-12T09:44:14.325Z,2.3
2018-01-12T09:45:23.745Z,2.3
2018-01-12T09:46:28.033Z,2.3
2018-01-12T09:47:33.284Z,2.2
2018-01-12T09:48:40.884Z,2.2
2018-01-12T09:49:56.814Z,2.1
2018-01-12T09:51:05.843Z,2.2
2018-01-12T09:52:14.931Z,2.2
2018-01-12T09:53:23.172Z,2.3
2018-01-12T09:54:30.900Z,2.2
2018-01-12T09:55:38.479Z,2.1
2018-01-12T09:56:41.771Z,2.3
2018-01-12T09:57:45.713Z,2.3
2018-01-12T09:58:49.486Z,2.4
2018-01-12T09:59:53.428Z,2.5
2018-01-12T10:01:01.872Z,2.5
2018-01-12T10:02:06.650Z,2.4
2018-01-12T10:03:10.329Z,2.4
2018-01-12T10:04:14.786Z,2.4
2018-01-12T10:05:19.061Z,2.3
2018-01-12T10:06:23.932Z,2.4
2018-01-12T10:07:31.283Z,2.3
2018-01-12T10:08:36.379Z,2.4
2018-01-12T10:09:54.035Z,2.5
2018-01-12T10:10:59.735Z,2.4
2018-01-12T10:12:10.231Z,2.5
2018-01-12T10:13:17.115Z,2.6
2018-01-12T10:14:22.395Z,2.7
2018-01-12T10:15:27.681Z,2.7
2018-01-12T10:16:32.899Z,2.7
2018-01-12T10:17:36.903Z,2.7
2018-01-12T10:18:40.990Z,2.8
2018-01-12T10:19:45.942Z,2.9
2018-01-12T10:20:49.462Z,2.8
2018-01-12T10:21:53.868Z,3.1
2018-01-12T10:23:00.702Z,2.9
2018-01-12T10:24:04.197Z,2.9
2018-01-12T10:25:07.551Z,2.9
2018-01-12T10:26:10.960Z,2.9
2018-01-12T10:27:14.659Z,2.9
2018-01-12T10:28:17.819Z,2.9
2018-01-12T10:29:21.663Z,2.9
2018-01-12T10:30:25.222Z,2.8
2018-01-12T10:31:29.893Z,2.9
2018-01-12T10:32:34.532Z,3
2018-01-12T10:33:44.751Z,2.9
2018-01-12T10:34:51.790Z,2.9
2018-01-12T10:35:55.339Z,2.9
2018-01-12T10:36:59.844Z,2.9
2018-01-12T10:38:06.965Z,2.9
2018-01-12T10:39:25.049Z,3
2018-01-12T10:41:54.192Z,2.9
2018-01-12T10:43:28.754Z,2.8
2018-01-12T10:45:03.663Z,2.9
2018-01-12T10:48:01.253Z,2.9
2018-01-12T10:50:09.282Z,3
2018-01-12T10:51:43.127Z,3
2018-01-12T10:53:14.894Z,3
2018-01-12T10:57:32.251Z,3.1
2018-01-12T11:01:13.185Z,3.1
2018-01-12T11:02:20.234Z,3.2
2018-01-12T11:03:23.677Z,3.2
2018-01-12T11:04:27.191Z,3.2
2018-01-12T11:05:31.901Z,3.2
2018-01-12T11:06:35.408Z,3.3
2018-01-12T11:07:38.789Z,3.5
2018-01-12T11:08:42.706Z,3.4
2018-01-12T11:09:46.182Z,3.3
2018-01-12T11:10:49.646Z,2.9
2018-01-12T11:11:56.704Z,3.1
2018-01-12T11:13:00.794Z,3.1
2018-01-12T11:14:04.386Z,2.9
2018-01-12T11:15:09.458Z,3
2018-01-12T11:16:12.850Z,3.2
2018-01-12T11:17:16.895Z,3.2
2018-01-12T11:18:21.678Z,3.2
2018-01-12T11:19:25.808Z,3.3
2018-01-12T11:20:29.316Z,3.3
2018-01-12T11:21:32.925Z,3.3
2018-01-12T11:23:13.122Z,3.3
2018-01-12T11:24:17.587Z,3.1
2018-01-12T11:25:22.472Z,3.1
2018-01-12T11:26:26.552Z,3.3
2018-01-12T11:27:31.749Z,3.3
2018-01-12T11:28:36.456Z,3.2
2018-01-12T11:29:40.090Z,3.2
2018-01-12T11:30:43.558Z,3.3
2018-01-12T11:31:46.900Z,3.3
2018-01-12T11:32:51.020Z,3.2
2018-01-12T11:34:01.526Z,3
2018-01-12T11:35:05.732Z,3
2018-01-12T11:36:11.964Z,3
2018-01-12T11:37:17.198Z,2.9
2018-01-12T11:38:22.445Z,2.9
2018-01-12T11:39:27.337Z,2.9
2018-01-12T11:40:33.715Z,3
2018-01-12T11:41:39.966Z,3.1
2018-01-12T11:42:45.773Z,3.1
2018-01-12T11:43:54.466Z,3.1
2018-01-12T11:45:08.280Z,3.1
2018-01-12T11:46:16.134Z,3.1
2018-01-12T11:47:21.594Z,3.1
2018-01-12T11:48:27.341Z,3.1
2018-01-12T11:49:34.225Z,3.2
2018-01-12T11:50:40.238Z,3.2
2018-01-12T11:51:45.926Z,3.1
2018-01-12T11:52:53.434Z,3.2
2018-01-12T11:53:59.562Z,3
2018-01-12T11:55:03.657Z,2.9
2018-01-12T11:56:11.438Z,2.8
2018-01-12T11:57:15.558Z,2.8
2018-01-12T11:58:19.000Z,2.9
2018-01-12T11:59:22.450Z,2.9
2018-01-12T12:00:25.952Z,2.9
2018-01-12T12:01:31.784Z,2.7
2018-01-12T12:02:38.024Z,2.9
2018-01-12T12:03:47.398Z,2.8
2018-01-12T12:04:55.992Z,2.7
2018-01-12T12:06:00.920Z,2.7
2018-01-12T12:07:41.106Z,2.7
2018-01-12T12:08:46.013Z,2.6
2018-01-12T12:09:50.179Z,2.7
2018-01-12T12:10:57.501Z,2.7
2018-01-12T12:12:08.744Z,2.9
2018-01-12T12:13:13.381Z,3
2018-01-12T12:14:19.267Z,2.9
2018-01-12T12:15:23.760Z,2.8
2018-01-12T12:16:28.923Z,2.8
2018-01-12T12:17:32.941Z,2.8
2018-01-12T12:18:42.295Z,2.8
2018-01-12T12:19:46.253Z,2.8
2018-01-12T12:20:51.432Z,2.8
2018-01-12T12:21:55.521Z,2.8
2018-01-12T12:22:58.872Z,2.8
2018-01-12T12:24:02.995Z,2.9
2018-01-12T12:25:06.465Z,2.8
2018-01-12T12:26:10.124Z,2.8
2018-01-12T12:27:14.899Z,2.9
2018-01-12T12:28:18.511Z,2.9
2018-01-12T12:29:26.460Z,3
2018-01-12T12:30:31.464Z,3
2018-01-12T12:31:36.264Z,3
2018-01-12T12:33:29.710Z,2.9
2018-01-12T12:34:33.850Z,2.9
2018-01-12T12:35:39.751Z,2.8
2018-01-12T12:36:43.348Z,2.7
2018-01-12T12:37:46.713Z,2.7
2018-01-12T12:38:50.174Z,2.6
2018-01-12T12:39:54.856Z,2.6
2018-01-12T12:41:04.594Z,2.7
2018-01-12T12:42:08.524Z,2.7
2018-01-12T12:43:11.903Z,2.9
2018-01-12T12:44:18.074Z,2.9
2018-01-12T12:45:22.631Z,2.9
2018-01-12T12:46:26.314Z,2.8
2018-01-12T12:47:31.426Z,2.8
2018-01-12T12:48:35.448Z,2.8
2018-01-12T12:49:40.885Z,2.9
2018-01-12T12:50:44.458Z,2.9
2018-01-12T12:51:53.182Z,2.9
2018-01-12T12:52:57.323Z,3
2018-01-12T12:54:00.947Z,3
2018-01-12T12:55:27.420Z,3
2018-01-12T12:57:51.964Z,3
2018-01-12T12:58:56.531Z,3
2018-01-12T13:00:00.132Z,3.1
2018-01-12T13:01:05.346Z,3
2018-01-12T13:02:09.606Z,3
2018-01-12T13:03:14.103Z,3.1
2018-01-12T13:04:25.528Z,3
2018-01-12T13:05:31.385Z,2.7
2018-01-12T13:06:34.873Z,2.8
2018-01-12T13:07:41.738Z,2.8
2018-01-12T13:08:48.618Z,2.8
2018-01-12T13:09:52.240Z,2.7
2018-01-12T13:10:55.532Z,2.8
2018-01-12T13:11:59.034Z,2.7
2018-01-12T13:13:02.431Z,2.8
2018-01-12T13:14:06.054Z,2.8
2018-01-12T13:15:13.181Z,2.9
2018-01-12T13:16:16.627Z,2.9
2018-01-12T13:17:20.944Z,3
2018-01-12T13:18:24.397Z,3
2018-01-12T13:19:27.625Z,3
2018-01-12T13:20:31.941Z,3
2018-01-12T13:21:37.629Z,3
2018-01-12T13:22:41.811Z,3.1
2018-01-12T13:23:45.397Z,2.9
2018-01-12T13:24:48.785Z,2.8
2018-01-12T13:25:56.585Z,2.7
2018-01-12T13:26:59.975Z,2.9
2018-01-12T13:28:03.545Z,2.9
2018-01-12T13:29:06.760Z,2.9
2018-01-12T13:30:11.198Z,2.8
2018-01-12T13:31:14.809Z,2.7
2018-01-12T13:32:18.374Z,2.8
2018-01-12T13:33:22.464Z,2.9
2018-01-12T13:34:26.211Z,2.8
2018-01-12T13:35:29.925Z,2.8
2018-01-12T13:36:39.065Z,2.9
2018-01-12T13:37:43.627Z,3
2018-01-12T13:38:47.792Z,2.9
2018-01-12T13:39:51.222Z,2.9
2018-01-12T13:40:55.333Z,2.9
2018-01-12T13:41:58.808Z,2.8
2018-01-12T13:43:02.843Z,2.9
2018-01-12T13:44:06.550Z,3
2018-01-12T13:45:10.185Z,3
2018-01-12T13:46:24.349Z,3.1
2018-01-12T13:47:53.744Z,3
2018-01-12T13:48:57.727Z,3.1
2018-01-12T13:50:02.117Z,3.1
2018-01-12T13:51:17.726Z,3.1
2018-01-12T13:52:24.162Z,3.1
2018-01-12T13:53:40.625Z,3.2
2018-01-12T13:55:03.402Z,3.1
2018-01-12T13:56:07.220Z,3.1
2018-01-12T13:57:10.992Z,3.1
2018-01-12T13:58:14.531Z,3.1
2018-01-12T13:59:22.051Z,3.1
2018-01-12T14:00:28.825Z,3.1
2018-01-12T14:01:33.264Z,3
2018-01-12T14:02:37.107Z,2.9
2018-01-12T14:03:41.797Z,3
2018-01-12T14:04:45.236Z,3
2018-01-12T14:05:50.220Z,3
2018-01-12T14:06:54.716Z,3.1
2018-01-12T14:07:58.190Z,3
2018-01-12T14:09:02.478Z,3
2018-01-12T14:10:10.132Z,3
2018-01-12T14:11:13.602Z,3.1
2018-01-12T14:12:17.566Z,3.1
2018-01-12T14:13:21.086Z,3.1
2018-01-12T14:14:24.558Z,3.1
2018-01-12T14:15:27.999Z,3.1
2018-01-12T14:16:31.617Z,3.1
2018-01-12T14:17:35.038Z,3.1
2018-01-12T14:18:38.500Z,3.1
2018-01-12T14:19:41.653Z,3.1
2018-01-12T14:21:20.407Z,3.1
2018-01-12T14:22:24.466Z,3
2018-01-12T14:23:28.792Z,3
2018-01-12T14:24:32.066Z,3.1
2018-01-12T14:25:36.160Z,3.1
2018-01-12T14:26:42.655Z,3.1
2018-01-12T14:27:46.205Z,3.1
2018-01-12T14:28:49.819Z,3.1
2018-01-12T14:29:53.935Z,3.1
2018-01-12T14:30:59.320Z,3.1
2018-01-12T14:32:08.573Z,3
2018-01-12T14:33:11.971Z,3
2018-01-12T14:34:15.848Z,3
2018-01-12T14:35:19.273Z,3
2018-01-12T14:36:33.774Z,3.1
2018-01-12T14:37:47.284Z,3.1
2018-01-12T14:38:53.116Z,3.1
2018-01-12T14:39:57.180Z,3.1
2018-01-12T14:41:02.479Z,3.1
2018-01-12T14:42:07.965Z,3.1
2018-01-12T14:43:19.941Z,3.1
2018-01-12T14:44:26.229Z,3.1
2018-01-12T14:45:42.430Z,3.1
2018-01-12T14:47:07.207Z,3.1
2018-01-12T14:48:15.606Z,3.1
2018-01-12T14:49:19.011Z,3.1
2018-01-12T14:50:26.880Z,3.1
2018-01-12T14:51:30.523Z,3.1
2018-01-12T14:52:34.154Z,3
2018-01-12T14:53:37.765Z,3
2018-01-12T14:54:45.408Z,3.1
2018-01-12T14:55:50.246Z,3.1
2018-01-12T14:56:54.973Z,3
2018-01-12T14:58:00.080Z,3
2018-01-12T14:59:03.557Z,3
2018-01-12T15:00:07.140Z,3
2018-01-12T15:01:10.379Z,3.1
2018-01-12T15:02:13.959Z,3.1
2018-01-12T15:03:17.529Z,3.1
2018-01-12T15:04:22.180Z,3.1
2018-01-12T15:05:29.406Z,3.1
2018-01-12T15:06:32.840Z,3.1
2018-01-12T15:07:36.582Z,3.1
2018-01-12T15:08:40.042Z,3.1
2018-01-12T15:09:43.597Z,3.1
2018-01-12T15:10:47.221Z,3.1
2018-01-12T15:11:51.350Z,3.1
2018-01-12T15:12:54.960Z,3.1
2018-01-12T15:13:58.421Z,3.1
2018-01-12T15:15:02.667Z,3.1
2018-01-12T15:16:41.936Z,3.1
2018-01-12T15:17:45.500Z,3.1
2018-01-12T15:18:48.920Z,3.1
2018-01-12T15:19:52.315Z,3.1
2018-01-12T15:20:55.674Z,3.1
2018-01-12T15:21:59.920Z,3.1
2018-01-12T15:23:03.353Z,3.2
2018-01-12T15:24:07.006Z,3.1
2018-01-12T15:25:11.429Z,3.1
2018-01-12T15:26:14.929Z,3.2
2018-01-12T15:27:22.006Z,3.1
2018-01-12T15:28:25.401Z,3.1
2018-01-12T15:29:29.135Z,3.1
2018-01-12T15:30:32.606Z,3.1
2018-01-12T15:31:36.004Z,3.1
2018-01-12T15:32:39.473Z,3.2
2018-01-12T15:33:42.979Z,3.1
2018-01-12T15:34:46.518Z,3.1
2018-01-12T15:35:49.930Z,3.1
2018-01-12T15:36:53.324Z,3.1